Time;durP1;ratioP1;P1;durP2;ratioP2;P2;SDS_P1;SDS_P2;PMS_P1;PMS_P2;Temp;Humidity;BMP_temperature;BMP_pressure;BME280_temperature;BME280_humidity;BME280_pressure;Samples;Min_cycle;Max_cycle;Signal;HPM_P1;HPM_P2
2022/09/01 00:00:56;;;;;;;4.03;3.63;;;16.00;99.90;;;;;;5027411;28;20444;-75
2022/09/01 00:03:23;;;;;;;4.20;3.90;;;16.00;99.90;;;;;;5028654;28;20474;-75
2022/09/01 00:05:55;;;;;;;4.17;3.83;;;16.00;99.90;;;;;;5019059;28;20952;-75
2022/09/01 00:08:23;;;;;;;3.87;3.57;;;15.90;99.90;;;;;;5021944;28;20450;-75
2022/09/01 00:10:49;;;;;;;3.80;3.50;;;15.90;99.90;;;;;;5022670;28;20420;-75
2022/09/01 00:13:17;;;;;;;3.73;3.47;;;15.80;99.90;;;;;;5020090;28;20478;-75
2022/09/01 00:15:44;;;;;;;4.73;3.80;;;15.80;99.90;;;;;;5023912;28;20447;-75
2022/09/01 00:18:12;;;;;;;4.00;3.70;;;15.70;99.90;;;;;;5026231;28;20450;-75
2022/09/01 00:20:39;;;;;;;5.90;4.10;;;15.60;99.90;;;;;;5021589;28;20449;-75
2022/09/01 00:23:05;;;;;;;4.10;3.70;;;15.60;99.90;;;;;;5022879;28;20880;-75
2022/09/01 00:25:32;;;;;;;4.70;4.30;;;15.50;99.90;;;;;;5014210;28;20434;-75
2022/09/01 00:28:03;;;;;;;3.97;3.67;;;15.60;99.90;;;;;;5019944;28;20482;-75
2022/09/01 00:30:30;;;;;;;4.40;3.87;;;15.50;99.90;;;;;;5015984;28;20480;-75
2022/09/01 00:32:57;;;;;;;5.73;3.90;;;15.40;99.90;;;;;;5020879;28;20517;-75
2022/09/01 00:35:25;;;;;;;4.70;4.23;;;15.40;99.90;;;;;;5020632;28;20454;-75
2022/09/01 00:37:52;;;;;;;7.93;4.00;;;15.40;99.90;;;;;;5021972;28;20994;-75
2022/09/01 00:40:19;;;;;;;5.37;3.80;;;15.30;99.90;;;;;;5027404;28;20512;-75
2022/09/01 00:42:47;;;;;;;3.87;3.50;;;15.30;99.90;;;;;;5017798;28;20516;-75
2022/09/01 00:45:14;;;;;;;4.17;3.87;;;15.30;99.90;;;;;;5018857;28;21146;-75
2022/09/01 00:47:42;;;;;;;5.43;3.57;;;15.30;99.90;;;;;;5022954;28;20487;-75
2022/09/01 00:50:10;;;;;;;4.80;3.90;;;15.30;99.90;;;;;;5025107;28;20430;-75
2022/09/01 00:52:42;;;;;;;4.60;4.30;;;15.20;99.90;;;;;;5020211;28;20557;-75
2022/09/01 00:55:13;;;;;;;3.87;3.20;;;15.20;99.90;;;;;;5024849;28;20454;-75
2022/09/01 00:57:39;;;;;;;4.40;4.00;;;15.20;99.90;;;;;;5017181;28;20482;-75
2022/09/01 01:00:10;;;;;;;5.00;3.83;;;15.20;99.90;;;;;;5025666;28;20451;-75
2022/09/01 01:02:37;;;;;;;3.60;3.37;;;15.20;99.90;;;;;;5021189;28;20480;-75
2022/09/01 01:05:05;;;;;;;4.10;3.70;;;15.20;99.90;;;;;;5018602;28;20749;-75
2022/09/01 01:07:41;;;;;;;4.40;3.63;;;15.10;99.90;;;;;;5015869;28;20486;-75
2022/09/01 01:10:11;;;;;;;4.53;3.77;;;15.10;99.90;;;;;;5023469;28;20466;-75
2022/09/01 01:12:39;;;;;;;5.47;3.80;;;15.10;99.90;;;;;;5018333;28;20554;-75
2022/09/01 01:15:07;;;;;;;4.97;3.90;;;15.10;99.90;;;;;;5015882;28;20444;-75
2022/09/01 01:17:35;;;;;;;4.47;3.60;;;15.00;99.90;;;;;;5018057;28;20475;-75
2022/09/01 01:23:04;;;;;;;5.23;3.87;;;15.00;99.90;;;;;;5020594;28;20581;-75
2022/09/01 01:25:36;;;;;;;5.27;3.93;;;14.90;99.90;;;;;;5023276;28;20462;-75
2022/09/01 01:28:09;;;;;;;7.37;4.20;;;14.90;99.90;;;;;;5025613;28;20490;-75
2022/09/01 01:30:38;;;;;;;4.40;4.10;;;14.80;99.90;;;;;;5021456;28;20455;-75
2022/09/01 01:33:06;;;;;;;4.23;3.93;;;14.80;99.90;;;;;;5020765;28;21053;-75
2022/09/01 01:35:33;;;;;;;6.03;3.80;;;14.70;99.90;;;;;;5014098;28;20513;-75
2022/09/01 01:38:01;;;;;;;4.40;4.00;;;14.70;99.90;;;;;;5024756;28;20462;-75
2022/09/01 01:40:28;;;;;;;5.80;4.07;;;14.60;99.90;;;;;;5021367;28;20512;-75
2022/09/01 01:43:00;;;;;;;4.43;3.40;;;14.60;99.90;;;;;;5022102;28;20479;-75
2022/09/01 01:45:27;;;;;;;3.90;3.60;;;14.50;99.90;;;;;;5019140;28;20959;-75
2022/09/01 01:47:55;;;;;;;4.30;3.70;;;14.50;99.90;;;;;;5027449;28;20908;-75
2022/09/01 01:50:22;;;;;;;4.70;3.60;;;14.50;99.90;;;;;;5022871;28;20461;-75
2022/09/01 01:52:49;;;;;;;3.90;3.60;;;14.50;99.90;;;;;;5020600;28;20481;-75
2022/09/01 01:55:18;;;;;;;4.03;3.70;;;14.50;99.90;;;;;;5021780;28;20454;-75
2022/09/01 01:57:48;;;;;;;3.70;3.40;;;14.50;99.90;;;;;;5025183;28;20459;-75
2022/09/01 02:00:18;;;;;;;4.23;3.47;;;14.50;99.90;;;;;;5026856;28;20465;-75
2022/09/01 02:02:51;;;;;;;8.63;3.70;;;14.40;99.90;;;;;;5018320;28;20975;-75
2022/09/01 02:05:20;;;;;;;5.73;4.00;;;14.40;99.90;;;;;;5019240;28;20805;-75
2022/09/01 02:07:47;;;;;;;5.60;3.43;;;14.40;99.90;;;;;;5025588;28;20486;-75
2022/09/01 02:10:14;;;;;;;6.07;4.00;;;14.40;99.90;;;;;;5019349;28;20521;-75
2022/09/01 02:12:42;;;;;;;4.00;3.43;;;14.40;99.90;;;;;;5013971;28;20475;-74
2022/09/01 02:15:11;;;;;;;4.03;3.83;;;14.30;99.90;;;;;;5019047;28;21185;-74
2022/09/01 02:17:41;;;;;;;4.20;3.80;;;14.40;99.90;;;;;;5022625;28;20451;-75
2022/09/01 02:20:09;;;;;;;7.07;3.60;;;14.30;99.90;;;;;;5022713;28;20482;-75
2022/09/01 02:22:36;;;;;;;4.00;3.70;;;14.30;99.90;;;;;;5020906;28;20628;-75
2022/09/01 02:25:04;;;;;;;3.97;3.57;;;14.30;99.90;;;;;;5021503;28;20461;-75
2022/09/01 02:27:32;;;;;;;7.60;3.57;;;14.30;99.90;;;;;;5017781;28;20566;-75
2022/09/01 02:30:00;;;;;;;4.07;3.77;;;14.20;99.90;;;;;;5019402;28;20521;-75
2022/09/01 02:32:27;;;;;;;3.80;3.50;;;14.20;99.90;;;;;;5018869;28;20467;-74
2022/09/01 02:35:00;;;;;;;3.73;3.43;;;14.20;99.90;;;;;;5017961;28;20481;-75
2022/09/01 02:37:28;;;;;;;4.43;3.40;;;14.20;99.90;;;;;;5018131;28;20455;-75
2022/09/01 02:39:56;;;;;;;3.90;3.60;;;14.20;99.90;;;;;;5018647;28;20455;-75
2022/09/01 02:42:25;;;;;;;4.03;3.70;;;14.20;99.90;;;;;;5023380;28;20532;-75
2022/09/01 02:44:52;;;;;;;4.00;3.70;;;14.20;99.90;;;;;;5020434;28;20535;-75
2022/09/01 02:47:19;;;;;;;4.07;3.40;;;14.10;99.90;;;;;;5021224;28;20478;-75
2022/09/01 02:49:46;;;;;;;4.00;3.70;;;14.10;99.90;;;;;;5018984;28;20455;-75
2022/09/01 02:52:16;;;;;;;4.70;3.63;;;14.10;99.90;;;;;;5017238;28;20478;-75
2022/09/01 02:54:44;;;;;;;3.67;3.37;;;14.10;99.90;;;;;;5023381;28;20458;-75
2022/09/01 02:57:11;;;;;;;5.40;3.60;;;14.00;99.90;;;;;;5020324;28;20487;-75
2022/09/01 02:59:38;;;;;;;4.70;3.00;;;14.00;99.90;;;;;;5018401;28;20454;-75
2022/09/01 03:02:07;;;;;;;5.23;3.93;;;14.00;99.90;;;;;;5017996;28;21063;-75
2022/09/01 03:04:34;;;;;;;3.93;3.63;;;14.00;99.90;;;;;;5021667;28;20458;-75
2022/09/01 03:07:01;;;;;;;3.60;3.30;;;14.00;99.90;;;;;;5020783;28;20523;-75
2022/09/01 03:09:29;;;;;;;7.30;3.87;;;14.00;99.90;;;;;;5019904;28;21334;-75
2022/09/01 03:11:55;;;;;;;3.73;3.43;;;14.00;99.90;;;;;;5019552;28;20482;-75
2022/09/01 03:14:23;;;;;;;3.70;3.37;;;14.00;99.90;;;;;;5017408;28;20450;-75
2022/09/01 03:16:50;;;;;;;4.17;3.20;;;14.00;99.90;;;;;;5018663;28;20462;-75
2022/09/01 03:19:17;;;;;;;3.47;3.20;;;14.00;99.90;;;;;;5017648;28;20454;-75
2022/09/01 03:21:46;;;;;;;4.67;3.93;;;14.00;99.90;;;;;;5018643;28;20944;-75
2022/09/01 03:24:16;;;;;;;3.80;3.50;;;14.00;99.90;;;;;;5021109;28;20600;-75
2022/09/01 03:26:46;;;;;;;5.80;3.67;;;14.00;99.90;;;;;;5020822;28;20461;-75
2022/09/01 03:29:14;;;;;;;4.83;3.70;;;14.00;99.90;;;;;;5018291;28;20458;-75
2022/09/01 03:31:41;;;;;;;4.20;3.90;;;14.00;99.90;;;;;;5013300;28;20474;-75
2022/09/01 03:34:09;;;;;;;6.20;3.27;;;14.00;99.90;;;;;;5020528;28;20479;-75
2022/09/01 03:36:36;;;;;;;5.20;3.77;;;14.00;99.90;;;;;;5019293;28;20458;-74
2022/09/01 03:39:04;;;;;;;8.93;4.00;;;14.00;99.90;;;;;;5022154;28;20459;-74
2022/09/01 03:41:31;;;;;;;4.73;3.47;;;14.00;99.90;;;;;;5020764;28;20477;-75
2022/09/01 03:43:59;;;;;;;4.70;3.60;;;14.00;99.90;;;;;;5014404;28;20472;-75
2022/09/01 03:46:29;;;;;;;4.23;3.50;;;13.90;99.90;;;;;;5022494;28;20458;-75
2022/09/01 03:48:59;;;;;;;8.13;4.10;;;13.90;99.90;;;;;;5022244;28;20487;-75
2022/09/01 03:51:29;;;;;;;8.10;4.07;;;13.90;99.90;;;;;;5023375;28;20458;-75
2022/09/01 03:53:58;;;;;;;4.30;3.90;;;13.90;99.90;;;;;;5022960;28;20497;-75
2022/09/01 03:56:26;;;;;;;4.50;3.40;;;13.90;99.90;;;;;;5020741;28;20454;-75
2022/09/01 03:58:55;;;;;;;3.93;3.63;;;13.90;99.90;;;;;;5019887;28;20450;-75
2022/09/01 04:01:23;;;;;;;3.23;3.03;;;13.90;99.90;;;;;;5016946;28;20457;-75
2022/09/01 04:03:50;;;;;;;6.67;3.80;;;14.00;99.90;;;;;;5026229;28;20470;-75
2022/09/01 04:06:18;;;;;;;5.13;3.77;;;13.90;99.90;;;;;;5025266;28;20788;-75
2022/09/01 04:08:45;;;;;;;5.20;3.40;;;13.90;99.90;;;;;;5020890;28;20545;-74
2022/09/01 04:11:15;;;;;;;5.40;3.60;;;13.90;99.90;;;;;;5026949;28;20537;-75
2022/09/01 04:13:42;;;;;;;7.07;4.40;;;13.80;99.90;;;;;;5026170;28;20902;-75
2022/09/01 04:18:04;;;;;;;4.10;3.70;;;13.80;99.90;;;;;;5023736;28;20454;-75
2022/09/01 04:19:18;;;;;;;10.17;5.30;;;13.80;99.90;;;;;;5026692;28;20497;-75
2022/09/01 04:21:45;;;;;;;4.03;3.57;;;13.80;99.90;;;;;;5023683;28;20463;-75
2022/09/01 04:24:14;;;;;;;5.90;4.27;;;13.70;99.90;;;;;;5021207;28;20863;-75
2022/09/01 04:26:41;;;;;;;9.33;3.60;;;13.70;99.90;;;;;;5021535;28;20951;-75
2022/09/01 04:29:10;;;;;;;3.57;3.37;;;13.70;99.90;;;;;;5025371;28;20568;-75
2022/09/01 04:31:38;;;;;;;4.97;3.40;;;13.70;99.90;;;;;;5017218;28;20474;-75
2022/09/01 04:34:11;;;;;;;4.40;3.30;;;13.60;99.90;;;;;;5020419;28;20466;-75
2022/09/01 04:36:42;;;;;;;7.43;3.97;;;13.60;99.90;;;;;;5025946;28;20490;-75
2022/09/01 04:39:11;;;;;;;9.20;3.70;;;13.60;99.90;;;;;;5020769;28;20541;-75
2022/09/01 04:41:39;;;;;;;3.80;3.50;;;13.60;99.90;;;;;;5022261;28;20494;-74
2022/09/01 04:44:07;;;;;;;3.37;3.10;;;13.60;99.90;;;;;;5017193;28;20963;-75
2022/09/01 04:46:37;;;;;;;6.27;3.70;;;13.60;99.90;;;;;;5022849;28;20873;-74
2022/09/01 04:49:09;;;;;;;6.10;3.20;;;13.60;99.90;;;;;;5023012;28;20498;-74
2022/09/01 04:51:39;;;;;;;4.60;3.50;;;13.60;99.90;;;;;;5021749;28;20442;-75
2022/09/01 04:54:08;;;;;;;3.50;3.20;;;13.60;99.90;;;;;;5021652;28;20462;-74
2022/09/01 04:56:35;;;;;;;6.00;3.47;;;13.50;99.90;;;;;;5023139;28;20984;-75
2022/09/01 04:59:02;;;;;;;5.17;3.40;;;13.50;99.90;;;;;;5022879;28;20528;-75
2022/09/01 05:01:29;;;;;;;9.77;3.50;;;13.50;99.90;;;;;;5021017;28;20486;-74
2022/09/01 05:04:00;;;;;;;4.37;3.90;;;13.50;99.90;;;;;;5013934;28;20496;-74
2022/09/01 05:06:28;;;;;;;3.30;3.07;;;13.50;99.90;;;;;;5019227;28;20955;-75
2022/09/01 05:08:56;;;;;;;3.83;3.37;;;13.50;99.90;;;;;;5015880;28;20901;-75
2022/09/01 05:11:24;;;;;;;4.60;3.90;;;13.50;99.90;;;;;;5018017;28;20451;-75
2022/09/01 05:13:56;;;;;;;6.80;3.97;;;13.60;99.90;;;;;;5027059;28;20855;-74
2022/09/01 05:16:24;;;;;;;5.20;3.60;;;13.60;99.90;;;;;;5022581;28;20979;-74
2022/09/01 05:18:55;;;;;;;4.50;3.70;;;13.60;99.90;;;;;;5029232;28;20446;-74
2022/09/01 05:21:27;;;;;;;6.50;4.40;;;13.70;99.90;;;;;;5029509;28;20561;-75
2022/09/01 05:23:55;;;;;;;4.53;4.13;;;13.70;99.90;;;;;;5013782;28;20478;-75
2022/09/01 05:26:25;;;;;;;5.03;3.77;;;13.70;99.90;;;;;;5016473;28;20455;-75
2022/09/01 05:28:54;;;;;;;6.87;3.70;;;13.70;99.90;;;;;;5017904;28;21017;-76
2022/09/01 05:31:22;;;;;;;5.30;3.87;;;13.80;99.90;;;;;;5021519;28;20450;-71
2022/09/01 05:33:50;;;;;;;4.93;3.60;;;13.80;99.90;;;;;;5013567;28;20483;-71
2022/09/01 05:36:19;;;;;;;12.13;3.70;;;13.90;99.90;;;;;;5023533;28;20523;-71
2022/09/01 05:38:47;;;;;;;3.60;3.30;;;13.90;99.90;;;;;;5014124;28;20459;-71
2022/09/01 05:41:16;;;;;;;4.50;3.83;;;13.90;99.90;;;;;;5018048;28;20447;-71
2022/09/01 05:43:48;;;;;;;5.60;3.77;;;13.90;99.90;;;;;;5016829;28;20594;-71
2022/09/01 05:46:17;;;;;;;4.30;3.87;;;13.90;99.90;;;;;;5015904;28;20462;-71
2022/09/01 05:48:46;;;;;;;3.37;3.03;;;14.00;99.90;;;;;;5017686;28;20573;-71
2022/09/01 05:51:18;;;;;;;5.37;3.67;;;14.00;99.90;;;;;;5019103;28;20457;-72
2022/09/01 05:53:46;;;;;;;4.00;3.70;;;14.10;99.90;;;;;;5015422;28;20563;-72
2022/09/01 05:56:13;;;;;;;3.93;3.53;;;14.10;99.90;;;;;;5020787;28;20560;-72
2022/09/01 05:58:44;;;;;;;3.60;3.30;;;14.20;99.90;;;;;;5014743;28;20973;-72
2022/09/01 06:01:20;;;;;;;3.67;3.37;;;14.30;99.90;;;;;;5018560;28;20466;-74
2022/09/01 06:03:48;;;;;;;3.57;3.27;;;14.30;99.90;;;;;;5023514;28;20491;-72
2022/09/01 06:06:15;;;;;;;4.57;3.70;;;14.30;99.90;;;;;;5018079;28;20447;-72
2022/09/01 06:08:47;;;;;;;4.63;3.50;;;14.40;99.90;;;;;;5025972;28;20489;-72
2022/09/01 06:11:13;;;;;;;4.10;3.40;;;14.40;99.90;;;;;;5015799;28;20462;-73
2022/09/01 06:13:40;;;;;;;18.43;3.90;;;14.40;99.90;;;;;;5018053;28;20532;-73
2022/09/01 06:16:07;;;;;;;4.53;3.50;;;14.50;99.90;;;;;;5021847;28;20802;-76
2022/09/01 06:18:35;;;;;;;6.13;3.30;;;14.60;99.90;;;;;;5020580;28;20453;-75
2022/09/01 06:21:04;;;;;;;4.83;3.20;;;14.80;99.90;;;;;;5023062;28;20943;-75
2022/09/01 06:23:30;;;;;;;7.23;3.30;;;15.00;99.90;;;;;;5026018;28;20567;-76
2022/09/01 06:25:58;;;;;;;7.70;3.40;;;15.20;99.90;;;;;;5025392;28;20454;-76
2022/09/01 06:28:28;;;;;;;6.57;3.50;;;15.50;99.90;;;;;;5027067;28;20486;-76
2022/09/01 06:30:56;;;;;;;3.93;2.93;;;15.70;99.90;;;;;;5026876;28;20450;-76
2022/09/01 06:33:23;;;;;;;10.03;3.53;;;15.80;99.90;;;;;;5024924;28;20459;-76
2022/09/01 06:35:54;;;;;;;6.13;3.27;;;16.10;99.90;;;;;;5026680;28;20459;-76
2022/09/01 06:38:21;;;;;;;3.77;3.13;;;16.20;99.90;;;;;;5026225;28;20483;-76
2022/09/01 06:40:48;;;;;;;3.30;3.00;;;16.10;99.90;;;;;;5026150;28;20462;-75
2022/09/01 06:43:16;;;;;;;4.80;3.10;;;16.00;99.90;;;;;;5025980;28;21609;-75
2022/09/01 06:45:45;;;;;;;3.77;3.10;;;16.00;99.90;;;;;;5026482;28;20470;-76
2022/09/01 06:48:15;;;;;;;9.03;3.23;;;16.00;99.90;;;;;;5025603;28;20470;-75
2022/09/01 06:50:42;;;;;;;3.23;2.70;;;16.10;99.90;;;;;;5026941;28;20450;-76
2022/09/01 06:53:15;;;;;;;3.63;2.80;;;16.10;99.90;;;;;;5026128;28;20474;-75
2022/09/01 06:55:42;;;;;;;5.67;2.63;;;16.20;99.90;;;;;;5026239;28;20469;-76
2022/09/01 06:58:14;;;;;;;3.30;2.80;;;16.20;99.90;;;;;;5026008;28;20463;-76
2022/09/01 07:00:42;;;;;;;3.63;2.77;;;16.30;99.90;;;;;;5024762;28;20464;-76
2022/09/01 07:03:10;;;;;;;6.87;2.67;;;16.30;99.90;;;;;;5025460;28;20466;-76
2022/09/01 07:05:39;;;;;;;3.40;2.80;;;16.40;99.90;;;;;;5025974;28;20524;-75
2022/09/01 07:08:08;;;;;;;6.30;2.80;;;16.50;99.90;;;;;;5025545;28;20466;-75
2022/09/01 07:10:44;;;;;;;6.30;3.50;;;16.60;99.90;;;;;;5025990;28;20457;-75
2022/09/01 07:13:14;;;;;;;6.83;3.03;;;16.60;99.90;;;;;;5024596;28;20467;-77
2022/09/01 07:15:42;;;;;;;4.67;2.83;;;16.70;99.90;;;;;;5024517;28;20489;-74
2022/09/01 07:18:09;;;;;;;8.60;3.30;;;16.60;99.90;;;;;;5025347;28;20447;-76
2022/09/01 07:20:38;;;;;;;4.73;2.60;;;16.70;99.90;;;;;;5024444;28;20457;-76
2022/09/01 07:23:05;;;;;;;3.23;2.70;;;16.70;99.90;;;;;;5024286;28;20833;-76
2022/09/01 07:25:38;;;;;;;4.33;2.97;;;16.60;99.90;;;;;;5025259;28;20508;-74
2022/09/01 07:28:06;;;;;;;5.50;3.20;;;16.60;99.90;;;;;;5025943;28;20871;-75
2022/09/01 07:30:34;;;;;;;7.50;3.30;;;16.60;99.90;;;;;;5024808;28;20958;-75
2022/09/01 07:33:01;;;;;;;5.80;2.57;;;16.60;99.90;;;;;;5025375;28;20481;-75
2022/09/01 07:35:30;;;;;;;6.63;2.80;;;16.60;99.90;;;;;;5025278;28;21144;-75
2022/09/01 07:37:56;;;;;;;5.13;3.17;;;16.60;99.90;;;;;;5027883;28;20544;-75
2022/09/01 07:40:27;;;;;;;5.50;2.90;;;16.60;99.90;;;;;;5029195;28;20506;-74
2022/09/01 07:42:56;;;;;;;4.63;2.67;;;16.70;99.90;;;;;;5028936;28;20481;-74
2022/09/01 07:45:24;;;;;;;4.87;2.87;;;16.80;99.90;;;;;;5028017;28;20461;-74
2022/09/01 07:47:52;;;;;;;3.77;2.37;;;16.80;99.90;;;;;;5028662;28;20437;-74
2022/09/01 07:50:19;;;;;;;5.00;2.83;;;16.80;99.90;;;;;;5027528;28;20477;-74
2022/09/01 07:52:48;;;;;;;4.10;2.80;;;16.80;99.90;;;;;;5028198;28;20481;-75
2022/09/01 07:55:16;;;;;;;5.57;2.97;;;16.80;99.90;;;;;;5027387;28;20527;-73
2022/09/01 07:57:44;;;;;;;4.30;3.03;;;16.70;99.90;;;;;;5028959;28;20450;-73
2022/09/01 08:00:14;;;;;;;7.13;3.20;;;16.80;99.90;;;;;;5027308;28;20450;-74
2022/09/01 08:02:43;;;;;;;6.27;3.17;;;16.90;99.90;;;;;;5026349;28;20505;-73
2022/09/01 08:05:12;;;;;;;6.20;3.13;;;17.00;99.90;;;;;;5027407;28;20459;-73
2022/09/01 08:07:39;;;;;;;10.07;3.07;;;17.10;99.90;;;;;;5027670;28;20461;-76
2022/09/01 08:10:08;;;;;;;6.13;2.60;;;17.10;99.90;;;;;;5027078;28;20943;-75
2022/09/01 08:12:35;;;;;;;6.50;3.40;;;17.20;99.90;;;;;;5026531;28;20467;-75
2022/09/01 08:15:02;;;;;;;16.23;3.00;;;17.20;99.90;;;;;;5026239;28;20479;-75
2022/09/01 08:17:28;;;;;;;8.13;2.80;;;17.30;99.90;;;;;;5026318;28;22024;-74
2022/09/01 08:19:56;;;;;;;3.33;2.70;;;17.30;99.90;;;;;;5028083;28;20432;-74
2022/09/01 08:22:24;;;;;;;3.47;3.00;;;17.40;99.90;;;;;;5027285;28;20863;-74
2022/09/01 08:24:51;;;;;;;2.70;2.50;;;17.50;99.90;;;;;;5028440;28;20453;-74
2022/09/01 08:27:18;;;;;;;8.77;2.60;;;17.70;99.90;;;;;;5027391;28;20876;-74
2022/09/01 08:29:44;;;;;;;11.23;2.80;;;17.90;99.90;;;;;;5028369;28;20486;-74
2022/09/01 08:32:11;;;;;;;5.47;2.50;;;18.00;99.90;;;;;;5028132;28;20449;-75
2022/09/01 08:34:38;;;;;;;15.40;2.70;;;18.00;99.90;;;;;;5028886;28;20431;-75
2022/09/01 08:37:06;;;;;;;7.30;2.50;;;18.00;99.90;;;;;;5027883;28;20469;-75
2022/09/01 08:39:33;;;;;;;4.90;3.10;;;18.10;99.90;;;;;;5028700;28;20429;-74
2022/09/01 08:42:08;;;;;;;5.27;2.40;;;18.20;99.90;;;;;;5026887;28;20495;-75
2022/09/01 08:44:41;;;;;;;4.83;2.57;;;18.40;99.90;;;;;;5028498;28;20488;-75
2022/09/01 08:47:11;;;;;;;7.00;2.30;;;18.80;99.90;;;;;;5028226;28;20517;-75
2022/09/01 08:49:39;;;;;;;4.27;2.47;;;19.20;99.90;;;;;;5027330;28;20997;-74
2022/09/01 08:52:17;;;;;;;8.43;2.40;;;19.60;99.90;;;;;;5027713;28;20509;-75
2022/09/01 08:54:48;;;;;;;5.07;2.53;;;19.80;99.90;;;;;;5028377;28;20462;-74
2022/09/01 08:57:18;;;;;;;6.10;2.57;;;20.00;99.90;;;;;;5026554;28;20541;-75
2022/09/01 08:59:45;;;;;;;3.23;2.20;;;20.30;99.90;;;;;;5027739;28;20470;-75
2022/09/01 09:02:26;;;;;;;6.93;2.60;;;21.00;99.90;;;;;;5026946;28;20563;-74
2022/09/01 09:05:00;;;;;;;5.43;2.30;;;21.60;99.90;;;;;;5027373;28;20524;-75
2022/09/01 09:07:46;;;;;;;4.80;2.20;;;22.20;99.90;;;;;;5027757;28;20508;-75
2022/09/01 09:10:20;;;;;;;4.70;2.17;;;22.30;99.90;;;;;;5028342;28;20493;-75
2022/09/01 09:13:01;;;;;;;6.50;2.63;;;22.10;99.90;;;;;;5028003;28;20498;-75
2022/09/01 09:15:36;;;;;;;5.60;2.50;;;21.90;99.90;;;;;;5027871;28;20458;-75
2022/09/01 09:18:13;;;;;;;5.70;2.40;;;21.80;99.90;;;;;;5027705;28;20446;-75
2022/09/01 09:20:41;;;;;;;2.93;2.43;;;21.80;99.90;;;;;;5027807;28;20442;-75
2022/09/01 09:23:32;;;;;;;6.87;2.03;;;22.00;99.90;;;;;;5027668;28;20478;-75
2022/09/01 09:25:58;;;;;;;2.90;2.40;;;22.20;99.90;;;;;;5027707;28;20459;-75
2022/09/01 09:28:25;;;;;;;11.33;2.27;;;22.50;99.90;;;;;;5026324;28;20870;-75
2022/09/01 09:31:07;;;;;;;3.83;2.07;;;22.80;99.90;;;;;;5025590;28;20493;-75
2022/09/01 09:33:37;;;;;;;8.87;2.57;;;23.20;99.90;;;;;;5025775;28;20474;-75
2022/09/01 09:36:19;;;;;;;2.10;1.90;;;23.50;99.90;;;;;;5026544;28;20910;-75
2022/09/01 09:38:47;;;;;;;3.50;2.27;;;23.80;99.90;;;;;;5026154;28;20544;-75
2022/09/01 09:41:20;;;;;;;7.20;2.47;;;24.20;99.90;;;;;;5027123;28;20516;-75
2022/09/01 09:43:49;;;;;;;4.00;1.97;;;24.60;99.90;;;;;;5027207;28;21012;-75
2022/09/01 09:46:25;;;;;;;3.00;1.60;;;25.00;99.90;;;;;;5027706;28;20454;-75
2022/09/01 09:49:08;;;;;;;3.00;2.23;;;24.80;99.90;;;;;;5026988;28;20458;-75
2022/09/01 09:51:36;;;;;;;11.60;2.30;;;24.60;99.90;;;;;;5027441;28;20454;-75
2022/09/01 09:54:20;;;;;;;2.07;1.90;;;24.50;99.90;;;;;;5027785;28;20883;-75
2022/09/01 09:56:48;;;;;;;4.23;2.00;;;24.50;99.90;;;;;;5023033;28;20892;-74
2022/09/01 09:59:20;;;;;;;4.13;2.07;;;24.50;99.90;;;;;;5026933;28;20451;-75
2022/09/01 10:01:50;;;;;;;2.10;1.90;;;24.50;99.90;;;;;;5026848;28;21819;-75
2022/09/01 10:04:33;;;;;;;2.83;1.67;;;24.70;99.90;;;;;;5027756;28;20464;-75
2022/09/01 10:07:00;;;;;;;3.20;2.00;;;25.00;99.90;;;;;;5026536;28;20878;-75
2022/09/01 10:09:38;;;;;;;1.97;1.70;;;25.40;99.90;;;;;;5027215;28;20898;-73
2022/09/01 10:12:05;;;;;;;3.77;2.03;;;25.60;99.90;;;;;;5027011;28;20850;-75
2022/09/01 10:14:40;;;;;;;2.90;1.70;;;25.70;99.90;;;;;;5027445;28;20494;-75
2022/09/01 10:17:13;;;;;;;6.30;2.10;;;25.60;99.90;;;;;;5027527;28;20873;-75
2022/09/01 10:19:48;;;;;;;4.27;2.10;;;25.90;99.90;;;;;;5027876;28;21018;-74
2022/09/01 10:22:14;;;;;;;3.60;1.83;;;26.20;99.90;;;;;;5027376;28;20470;-75
2022/09/01 10:24:43;;;;;;;2.20;1.97;;;26.40;99.90;;;;;;5026941;28;20442;-75
2022/09/01 10:27:19;;;;;;;4.70;2.30;;;26.70;99.90;;;;;;5027566;28;20455;-75
2022/09/01 10:29:50;;;;;;;5.77;2.17;;;26.80;99.90;;;;;;5027222;28;20543;-75
2022/09/01 10:32:21;;;;;;;9.30;2.30;;;26.40;99.40;;;;;;5027447;28;20501;-75
2022/09/01 10:34:48;;;;;;;3.97;2.20;;;26.20;99.80;;;;;;5026471;28;20520;-73
2022/09/01 10:37:17;;;;;;;5.57;2.57;;;26.20;99.20;;;;;;5024484;28;20458;-74
2022/09/01 10:40:18;;;;;;;5.33;2.20;;;26.20;99.30;;;;;;5026095;28;20446;-73
2022/09/01 10:42:51;;;;;;;2.53;1.70;;;26.30;98.40;;;;;;5025346;28;20539;-75
2022/09/01 10:45:29;;;;;;;1.87;1.77;;;26.20;98.80;;;;;;5024971;28;20486;-74
2022/09/01 10:47:56;;;;;;;2.13;1.90;;;26.30;98.60;;;;;;5026200;28;20453;-73
2022/09/01 10:50:26;;;;;;;2.90;2.03;;;26.30;97.20;;;;;;5025813;28;20536;-73
2022/09/01 10:52:59;;;;;;;6.63;1.77;;;26.30;98.10;;;;;;5025926;28;20501;-73
2022/09/01 10:55:35;;;;;;;3.87;1.97;;;26.50;97.70;;;;;;5024915;28;20538;-73
2022/09/01 10:58:24;;;;;;;2.20;1.90;;;26.80;97.30;;;;;;5025302;28;20473;-74
2022/09/01 11:00:53;;;;;;;4.00;1.70;;;26.80;96.70;;;;;;5025246;28;20450;-73
2022/09/01 11:03:48;;;;;;;3.10;1.60;;;27.20;96.50;;;;;;5024458;28;20556;-75
2022/09/01 11:06:52;;;;;;;3.63;2.27;;;27.20;96.30;;;;;;5026870;28;20458;-74
2022/09/01 11:09:23;;;;;;;4.23;1.87;;;27.30;96.40;;;;;;5024801;28;20453;-75
2022/09/01 11:12:16;;;;;;;9.80;2.17;;;27.10;96.10;;;;;;5029638;28;20512;-75
2022/09/01 11:14:51;;;;;;;5.87;2.23;;;27.10;95.90;;;;;;5030833;28;20958;-76
2022/09/01 11:17:21;;;;;;;3.60;2.30;;;26.50;96.20;;;;;;5031085;28;20858;-76
2022/09/01 11:19:58;;;;;;;6.57;2.23;;;26.10;96.60;;;;;;5031439;28;21590;-76
2022/09/01 11:22:31;;;;;;;3.20;2.00;;;25.80;96.70;;;;;;5031382;28;20568;-76
2022/09/01 11:25:36;;;;;;;2.47;1.90;;;25.70;97.10;;;;;;5030747;28;20937;-76
2022/09/01 11:28:33;;;;;;;2.10;2.00;;;25.70;96.70;;;;;;5031321;28;20457;-76
2022/09/01 11:31:11;;;;;;;2.77;2.57;;;25.90;96.50;;;;;;5030918;28;20486;-77
2022/09/01 11:33:59;;;;;;;2.10;2.00;;;26.00;95.90;;;;;;5030335;28;20476;-77
2022/09/01 11:36:33;;;;;;;4.33;2.00;;;26.00;96.20;;;;;;5030824;28;20468;-77
2022/09/01 11:39:08;;;;;;;2.70;2.00;;;26.20;95.70;;;;;;5030844;28;20543;-76
2022/09/01 11:41:49;;;;;;;3.10;1.83;;;26.40;95.60;;;;;;5029489;28;20457;-76
2022/09/01 11:44:22;;;;;;;2.70;2.03;;;26.40;95.50;;;;;;5029908;28;20441;-77
2022/09/01 11:46:51;;;;;;;1.70;1.60;;;26.70;95.40;;;;;;5028492;28;20977;-77
2022/09/01 11:49:28;;;;;;;3.57;2.00;;;26.80;94.50;;;;;;5028487;28;20442;-76
2022/09/01 11:51:56;;;;;;;2.27;2.00;;;26.90;94.30;;;;;;5028921;28;20457;-74
2022/09/01 11:54:23;;;;;;;3.90;2.23;;;26.80;94.10;;;;;;5028199;28;20481;-75
2022/09/01 11:56:50;;;;;;;2.67;2.10;;;26.70;94.20;;;;;;5028569;28;20460;-77
2022/09/01 11:59:31;;;;;;;4.33;1.90;;;26.20;93.50;;;;;;5029902;28;20512;-77
2022/09/01 12:02:00;;;;;;;3.40;2.00;;;25.70;93.70;;;;;;5029698;28;20474;-77
2022/09/01 12:04:32;;;;;;;6.67;2.40;;;25.20;93.90;;;;;;5029669;28;20946;-77
2022/09/01 12:07:01;;;;;;;3.10;2.10;;;24.90;95.20;;;;;;5029687;28;20458;-78
2022/09/01 12:09:36;;;;;;;18.40;7.90;;;24.80;95.60;;;;;;5029640;28;20454;-76
2022/09/01 12:12:04;;;;;;;25.57;10.00;;;24.70;95.80;;;;;;5029674;28;20481;-75
2022/09/01 12:14:31;;;;;;;3.43;2.63;;;24.70;96.10;;;;;;5029705;28;20454;-75
2022/09/01 12:17:02;;;;;;;2.80;2.13;;;24.70;95.40;;;;;;5029772;28;21025;-76
2022/09/01 12:19:31;;;;;;;2.80;2.60;;;24.70;95.70;;;;;;5029738;28;20446;-76
2022/09/01 12:22:01;;;;;;;3.80;2.17;;;24.80;95.50;;;;;;5028689;28;20489;-75
2022/09/01 12:24:32;;;;;;;3.27;2.00;;;25.00;95.60;;;;;;5028022;28;21004;-76
2022/09/01 12:27:00;;;;;;;2.20;2.00;;;25.30;95.40;;;;;;5028081;28;20450;-76
2022/09/01 12:29:27;;;;;;;2.20;2.10;;;25.90;94.00;;;;;;5028402;28;20532;-76
2022/09/01 12:31:54;;;;;;;2.40;2.20;;;26.70;92.40;;;;;;5029019;28;20517;-76
2022/09/01 12:34:28;;;;;;;2.00;1.80;;;27.20;92.10;;;;;;5029350;28;20452;-76
2022/09/01 12:37:11;;;;;;;2.60;2.40;;;27.40;91.60;;;;;;5028800;28;20473;-76
2022/09/01 12:39:41;;;;;;;2.40;2.03;;;26.70;91.40;;;;;;5029244;28;20454;-76
2022/09/01 12:42:11;;;;;;;5.83;2.53;;;26.00;91.90;;;;;;5028683;28;20474;-76
2022/09/01 12:44:49;;;;;;;4.10;2.43;;;25.60;92.70;;;;;;5029101;28;20458;-76
2022/09/01 12:47:50;;;;;;;6.13;2.30;;;25.50;93.00;;;;;;5026765;28;20462;-76
2022/09/01 12:50:45;;;;;;;3.47;2.20;;;25.30;93.50;;;;;;5029080;28;20873;-76
2022/09/01 12:53:20;;;;;;;2.73;2.10;;;25.20;93.60;;;;;;5028700;28;20490;-76
2022/09/01 12:56:06;;;;;;;4.53;2.00;;;25.10;93.20;;;;;;5028471;28;20454;-76
2022/09/01 12:58:33;;;;;;;2.13;2.03;;;25.30;93.00;;;;;;5028711;28;20450;-76
2022/09/01 13:01:04;;;;;;;6.30;2.10;;;25.80;92.50;;;;;;5027703;28;20462;-76
2022/09/01 13:03:32;;;;;;;2.63;2.00;;;26.10;91.90;;;;;;5028076;28;20516;-76
2022/09/01 13:06:01;;;;;;;2.40;2.10;;;25.80;91.80;;;;;;5028217;28;20455;-76